Nearby METAR Reports

 

KSJC - San Jose, California, USA
Distance from station: NØ 14km
Opdateret: 24/09/2018 11:53
Klart
Klart
 Vind retning calm
Vind: Vindstille
Temperatur: 14°C
Dugpunkt: 12°C
Fugtighed: 88%
Barometer: 1010.8 hPa
Clouds: Klart
Visibility: 16 km
2018/09/24 09:53 KSJC 240953Z AUTO 00000KT 10SM CLR 14/12 A2985 RMK AO2 SLP107 T01440117 $
KNUQ - Moffett Nas/Mtn, California, USA
Distance from station: N 14km
Opdateret: 24/09/2018 10:56
Klart
Klart
 Vind retning VSV
Vind: VSV 6 km/h
Temperatur: 13°C
Dugpunkt: 11°C
Fugtighed: 88%
Barometer: 1011.2 hPa
Clouds: Klart
Visibility: 16 km
2018/09/24 08:56 KNUQ 240856Z 24003KT 10SM CLR 13/11 A2986 RMK AO2 SLP114 T01330111 56003 $
 
KPAO - Palo Alto, California, USA
Distance from station: NNV 23km
Opdateret: 24/09/2018 05:47
NOT Current
Klart
Klart
 Vind retning NV
Vind: NV 13 km/h
Barometer: 1011.5 hPa
Clouds: Klart
Visibility: 16 km
2018/09/24 03:47 KPAO 240347Z 32007KT 10SM SKC A2987 RMK LAST
KRHV - San Jose/Reid, California, USA
Distance from station: ØNØ 19km
Opdateret: 24/09/2018 06:50
NOT Current
Klart
Klart
 Vind retning calm
Vind: Vindstille
Temperatur: 17°C
Dugpunkt: 11°C
Fugtighed: 68%
Barometer: 1010.5 hPa
Clouds: Klart
Visibility: 16 km
2018/09/24 04:50 KRHV 240450Z 00000KT 10SM SKC 17/11 A2984 RMK LAST
 
KOAK - Oakland, California, USA
Distance from station: NNV 50km
Opdateret: 24/09/2018 11:53
Klart
Klart
 Vind retning N
Vind: N 6 km/h
Temperatur: 9°C
Dugpunkt: 9°C
Fugtighed: 100%
Barometer: 1011.5 hPa
Clouds: Klart
Visibility: 13 km
2018/09/24 09:53 KOAK 240953Z 01003KT 8SM CLR 09/09 A2987 RMK AO2 SLP112 T00940089 $
KSQL - San Carlos Airpo, California, USA
Distance from station: NV 34km
Opdateret: 24/09/2018 11:55
Klart
Klart
 Vind retning calm
Vind: Vindstille
Temperatur: 12°C
Dugpunkt: 9°C
Fugtighed: 82%
Barometer: 1011.2 hPa
Clouds: Klart
Visibility: 16 km
2018/09/24 09:55 KSQL 240955Z AUTO 00000KT 10SM CLR 12/09 A2986 RMK AO2
 
KSFO - San Francisco, California, USA
Distance from station: NV 49km
Opdateret: 24/09/2018 11:56
Klart
Klart
 Vind retning V
Vind: V 11 km/h
Temperatur: 10°C
Wind Chill: 8°C
Dugpunkt: 8°C
Fugtighed: 88%
Barometer: 1010.8 hPa
Clouds: Klart
Visibility: 16 km
2018/09/24 09:56 KSFO 240956Z 27006KT 10SM CLR 10/08 A2985 RMK AO2 SLP108 T01000083 $
KE16 - San Martin, California, USA
Distance from station: ØSØ 43km
Opdateret: 24/09/2018 11:15
Klart
Klart
 Vind retning calm
Vind: Vindstille
Temperatur: 11°C
Dugpunkt: 8°C
Fugtighed: 82%
Barometer: 1012.2 hPa
Clouds: Klart
Visibility: 16 km
2018/09/24 09:15 KE16 240915Z AUTO 00000KT 10SM CLR 11/08 A2989 RMK AO2
 
KWVI - Watsonville, California, USA
Distance from station: SSØ 44km
Opdateret: 24/09/2018 11:56
Mist, Mest skyet
Mist, Mest skyet
 Vind retning calm
Vind: Vindstille
Temperatur: 9°C
Dugpunkt: 9°C
Fugtighed: 100%
Barometer: 1011.9 hPa
Oversigt: Mist
Clouds: Mest skyet
Visibility: 4 km
Cloud details: Mest skyet 61 m
2018/09/24 09:56 KWVI 240956Z AUTO 00000KT 2 1/2SM BR BKN002 09/09 A2988 RMK AO2 T00890089 $
KHAF - Half Moon Bay, California, USA
Distance from station: VNV 50km
Opdateret: 24/09/2018 11:55
Klart
Klart
 Vind retning calm
Vind: Vindstille
Temperatur: 6°C
Dugpunkt: 5°C
Fugtighed: 93%
Barometer: 1011.9 hPa
Clouds: Klart
Visibility: 11 km
2018/09/24 09:55 KHAF 240955Z AUTO 00000KT 7SM CLR 06/05 A2988 RMK AO2
 
KHWD - Hayward, California, USA
Distance from station: N 44km
Opdateret: 24/09/2018 11:54
Klart
Klart
 Vind retning NØ
Vind: NØ 6 km/h
Temperatur: 12°C
Dugpunkt: 8°C
Fugtighed: 77%
Barometer: 1010.8 hPa
Clouds: Klart
Visibility: 16 km
2018/09/24 09:54 KHWD 240954Z AUTO 04003KT 10SM CLR 12/08 A2985 RMK AO2 SLP118 T01220078
KLVK - Livermore, California, USA
Distance from station: NNØ 51km
Opdateret: 24/09/2018 11:53
Klart
Klart
 Vind retning calm
Vind: Vindstille
Temperatur: 12°C
Dugpunkt: 1°C
Fugtighed: 47%
Barometer: 1010.8 hPa
Clouds: Klart
Visibility: 16 km
2018/09/24 09:53 KLVK 240953Z AUTO 00000KT 10SM CLR 12/01 A2985 RMK AO2 SLP103 T01170011